sensor_id;sensor_type;location;lat;lon;timestamp;pressure;altitude;pressure_sealevel;temperature;humidity
62126;BME280;48112;53.282;6.150;2023-03-04T00:00:36;102753.69;;;13.68;55.45
62126;BME280;48112;53.282;6.150;2023-03-04T00:01:43;102750.97;;;13.68;54.98
62126;BME280;48112;53.282;6.150;2023-03-04T00:02:46;102755.28;;;13.69;55.18
62126;BME280;48112;53.282;6.150;2023-03-04T00:03:48;102748.25;;;13.68;55.06
62126;BME280;48112;53.282;6.150;2023-03-04T00:04:51;102756.41;;;13.68;54.89
62126;BME280;48112;53.282;6.150;2023-03-04T00:05:52;102750.97;;;13.68;54.77
62126;BME280;48112;53.282;6.150;2023-03-04T00:06:55;102752.88;;;13.67;54.69
62126;BME280;48112;53.282;6.150;2023-03-04T00:07:57;102749.38;;;13.67;54.60
62126;BME280;48112;53.282;6.150;2023-03-04T00:08:59;102746.69;;;13.67;54.89
62126;BME280;48112;53.282;6.150;2023-03-04T00:10:01;102749.38;;;13.67;54.87
62126;BME280;48112;53.282;6.150;2023-03-04T00:11:04;102742.34;;;13.66;54.84
62126;BME280;48112;53.282;6.150;2023-03-04T00:12:08;102754.00;;;13.66;54.78
62126;BME280;48112;53.282;6.150;2023-03-04T00:13:11;102756.72;;;13.66;54.45
62126;BME280;48112;53.282;6.150;2023-03-04T00:14:14;102753.19;;;13.66;55.01
62126;BME280;48112;53.282;6.150;2023-03-04T00:15:17;102747.78;;;13.66;54.63
62126;BME280;48112;53.282;6.150;2023-03-04T00:16:18;102757.03;;;13.65;54.90
62126;BME280;48112;53.282;6.150;2023-03-04T00:17:21;102758.63;;;13.66;54.62
62126;BME280;48112;53.282;6.150;2023-03-04T00:18:23;102752.41;;;13.65;54.48
62126;BME280;48112;53.282;6.150;2023-03-04T00:19:26;102755.91;;;13.66;54.74
62126;BME280;48112;53.282;6.150;2023-03-04T00:20:28;102760.56;;;13.65;54.98
62126;BME280;48112;53.282;6.150;2023-03-04T00:21:30;102760.56;;;13.65;54.55
62126;BME280;48112;53.282;6.150;2023-03-04T00:22:32;102745.38;;;13.64;54.89
62126;BME280;48112;53.282;6.150;2023-03-04T00:23:35;102748.91;;;13.65;54.89
62126;BME280;48112;53.282;6.150;2023-03-04T00:24:36;102752.41;;;13.65;54.45
62126;BME280;48112;53.282;6.150;2023-03-04T00:25:39;102752.41;;;13.65;54.55
62126;BME280;48112;53.282;6.150;2023-03-04T00:26:43;102744.59;;;13.64;54.92
62126;BME280;48112;53.282;6.150;2023-03-04T00:27:47;102757.03;;;13.65;54.63
62126;BME280;48112;53.282;6.150;2023-03-04T00:28:48;102750.81;;;13.64;54.87
62126;BME280;48112;53.282;6.150;2023-03-04T00:29:52;102748.09;;;13.64;55.00
62126;BME280;48112;53.282;6.150;2023-03-04T00:30:54;102746.19;;;13.65;54.89
62126;BME280;48112;53.282;6.150;2023-03-04T00:31:57;102747.31;;;13.64;54.68
62126;BME280;48112;53.282;6.150;2023-03-04T00:32:59;102739.16;;;13.64;54.63
62126;BME280;48112;53.282;6.150;2023-03-04T00:34:02;102748.09;;;13.64;55.10
62126;BME280;48112;53.282;6.150;2023-03-04T00:35:04;102747.31;;;13.64;55.07
62126;BME280;48112;53.282;6.150;2023-03-04T00:36:07;102743.78;;;13.63;54.61
62126;BME280;48112;53.282;6.150;2023-03-04T00:37:09;102742.97;;;13.63;54.44
62126;BME280;48112;53.282;6.150;2023-03-04T00:38:12;102736.44;;;13.64;54.86
62126;BME280;48112;53.282;6.150;2023-03-04T00:39:15;102740.25;;;13.63;54.75
62126;BME280;48112;53.282;6.150;2023-03-04T00:40:18;102742.97;;;13.63;54.75
62126;BME280;48112;53.282;6.150;2023-03-04T00:41:20;102741.38;;;13.62;54.70
62126;BME280;48112;53.282;6.150;2023-03-04T00:42:23;102729.09;;;13.56;54.59
62126;BME280;48112;53.282;6.150;2023-03-04T00:43:24;102737.53;;;13.63;54.55
62126;BME280;48112;53.282;6.150;2023-03-04T00:44:30;102739.44;;;13.62;54.23
62126;BME280;48112;53.282;6.150;2023-03-04T00:45:33;102730.53;;;13.62;54.74
62126;BME280;48112;53.282;6.150;2023-03-04T00:46:36;102730.53;;;13.62;54.18
62126;BME280;48112;53.282;6.150;2023-03-04T00:47:37;102735.16;;;13.61;54.17
62126;BME280;48112;53.282;6.150;2023-03-04T00:48:40;102728.91;;;13.61;54.22
62126;BME280;48112;53.282;6.150;2023-03-04T00:49:42;102731.63;;;13.61;53.99
62126;BME280;48112;53.282;6.150;2023-03-04T00:50:44;102728.91;;;13.61;53.89
62126;BME280;48112;53.282;6.150;2023-03-04T00:51:46;102737.06;;;13.61;53.84
62126;BME280;48112;53.282;6.150;2023-03-04T00:52:49;102727.00;;;13.61;53.88
62126;BME280;48112;53.282;6.150;2023-03-04T00:53:51;102730.03;;;13.60;54.01
62126;BME280;48112;53.282;6.150;2023-03-04T00:54:54;102728.91;;;13.61;53.94
62126;BME280;48112;53.282;6.150;2023-03-04T00:55:55;102727.00;;;13.61;53.95
62126;BME280;48112;53.282;6.150;2023-03-04T00:56:58;102734.34;;;13.61;54.21
62126;BME280;48112;53.282;6.150;2023-03-04T00:58:00;102728.13;;;13.60;53.82
62126;BME280;48112;53.282;6.150;2023-03-04T00:59:02;102733.56;;;13.60;54.22
62126;BME280;48112;53.282;6.150;2023-03-04T01:00:06;102725.41;;;13.60;53.83
62126;BME280;48112;53.282;6.150;2023-03-04T01:01:10;102721.91;;;13.60;53.99
62126;BME280;48112;53.282;6.150;2023-03-04T01:02:12;102728.91;;;13.61;54.27
62126;BME280;48112;53.282;6.150;2023-03-04T01:03:14;102727.31;;;13.60;54.30
62126;BME280;48112;53.282;6.150;2023-03-04T01:04:16;102730.03;;;13.60;54.30
62126;BME280;48112;53.282;6.150;2023-03-04T01:05:19;102728.91;;;13.61;53.90
62126;BME280;48112;53.282;6.150;2023-03-04T01:06:21;102727.31;;;13.60;53.85
62126;BME280;48112;53.282;6.150;2023-03-04T01:07:24;102727.31;;;13.60;54.01
62126;BME280;48112;53.282;6.150;2023-03-04T01:08:25;102732.75;;;13.60;53.98
62126;BME280;48112;53.282;6.150;2023-03-04T01:09:29;102731.63;;;13.61;54.31
62126;BME280;48112;53.282;6.150;2023-03-04T01:10:31;102728.91;;;13.61;54.16
62126;BME280;48112;53.282;6.150;2023-03-04T01:11:34;102727.31;;;13.60;53.88
62126;BME280;48112;53.282;6.150;2023-03-04T01:12:35;102732.75;;;13.60;54.40
62126;BME280;48112;53.282;6.150;2023-03-04T01:13:38;102727.31;;;13.60;54.34
62126;BME280;48112;53.282;6.150;2023-03-04T01:14:40;102728.13;;;13.60;54.16
62126;BME280;48112;53.282;6.150;2023-03-04T01:15:43;102721.91;;;13.60;54.55
62126;BME280;48112;53.282;6.150;2023-03-04T01:16:46;102729.22;;;13.59;54.65
62126;BME280;48112;53.282;6.150;2023-03-04T01:17:49;102719.19;;;13.60;54.62
62126;BME280;48112;53.282;6.150;2023-03-04T01:18:51;102721.91;;;13.60;54.67
62126;BME280;48112;53.282;6.150;2023-03-04T01:19:54;102728.13;;;13.60;54.27
62126;BME280;48112;53.282;6.150;2023-03-04T01:20:56;102723.81;;;13.59;54.21
62126;BME280;48112;53.282;6.150;2023-03-04T01:21:58;102715.66;;;13.59;54.19
62126;BME280;48112;53.282;6.150;2023-03-04T01:23:00;102708.31;;;13.60;54.30
62126;BME280;48112;53.282;6.150;2023-03-04T01:24:03;102715.66;;;13.59;53.96
62126;BME280;48112;53.282;6.150;2023-03-04T01:25:05;102715.66;;;13.59;53.96
62126;BME280;48112;53.282;6.150;2023-03-04T01:26:09;102723.81;;;13.59;54.42
62126;BME280;48112;53.282;6.150;2023-03-04T01:27:11;102714.88;;;13.59;54.43
62126;BME280;48112;53.282;6.150;2023-03-04T01:28:14;102714.88;;;13.59;54.04
62126;BME280;48112;53.282;6.150;2023-03-04T01:29:15;102714.88;;;13.59;54.50
62126;BME280;48112;53.282;6.150;2023-03-04T01:30:18;102723.03;;;13.59;54.52
62126;BME280;48112;53.282;6.150;2023-03-04T01:31:20;102700.16;;;13.51;54.59
62126;BME280;48112;53.282;6.150;2023-03-04T01:32:25;102707.06;;;13.57;54.03
62126;BME280;48112;53.282;6.150;2023-03-04T01:33:27;102709.44;;;13.59;54.34
62126;BME280;48112;53.282;6.150;2023-03-04T01:34:30;102711.34;;;13.58;53.81
62126;BME280;48112;53.282;6.150;2023-03-04T01:35:32;102713.25;;;13.57;54.47
62126;BME280;48112;53.282;6.150;2023-03-04T01:36:34;102707.84;;;13.57;54.05
62126;BME280;48112;53.282;6.150;2023-03-04T01:37:36;102707.84;;;13.57;53.90
62126;BME280;48112;53.282;6.150;2023-03-04T01:38:39;102705.13;;;13.57;54.01
62126;BME280;48112;53.282;6.150;2023-03-04T01:39:41;102699.69;;;13.57;54.12
62126;BME280;48112;53.282;6.150;2023-03-04T01:40:44;102701.63;;;13.57;53.67
62126;BME280;48112;53.282;6.150;2023-03-04T01:41:46;102707.84;;;13.57;54.26
62126;BME280;48112;53.282;6.150;2023-03-04T01:42:48;102698.09;;;13.57;53.65
62126;BME280;48112;53.282;6.150;2023-03-04T01:43:55;102695.38;;;13.57;54.15
62126;BME280;48112;53.282;6.150;2023-03-04T01:45:01;102689.97;;;13.57;53.71
62126;BME280;48112;53.282;6.150;2023-03-04T01:46:03;102689.97;;;13.57;54.15
62126;BME280;48112;53.282;6.150;2023-03-04T01:47:07;102692.66;;;13.57;53.80
62126;BME280;48112;53.282;6.150;2023-03-04T01:48:11;102687.56;;;13.55;54.15
62126;BME280;48112;53.282;6.150;2023-03-04T01:49:17;102689.16;;;13.56;53.68
62126;BME280;48112;53.282;6.150;2023-03-04T01:50:21;102689.97;;;13.57;54.05
62126;BME280;48112;53.282;6.150;2023-03-04T01:51:25;102683.72;;;13.56;53.59
62126;BME280;48112;53.282;6.150;2023-03-04T01:52:27;102688.38;;;13.56;53.89
62126;BME280;48112;53.282;6.150;2023-03-04T01:53:30;102685.66;;;13.56;54.09
62126;BME280;48112;53.282;6.150;2023-03-04T01:54:32;102676.72;;;13.55;53.60
62126;BME280;48112;53.282;6.150;2023-03-04T01:55:35;102679.09;;;13.57;53.67
62126;BME280;48112;53.282;6.150;2023-03-04T01:56:37;102674.81;;;13.56;53.72
62126;BME280;48112;53.282;6.150;2023-03-04T01:57:40;102674.81;;;13.56;53.93
62126;BME280;48112;53.282;6.150;2023-03-04T01:58:41;102669.38;;;13.56;53.54
62126;BME280;48112;53.282;6.150;2023-03-04T01:59:45;102677.53;;;13.56;53.58
62126;BME280;48112;53.282;6.150;2023-03-04T02:00:46;102677.53;;;13.56;53.58
62126;BME280;48112;53.282;6.150;2023-03-04T02:01:51;102674.00;;;13.55;53.66
62126;BME280;48112;53.282;6.150;2023-03-04T02:02:54;102672.09;;;13.56;53.66
62126;BME280;48112;53.282;6.150;2023-03-04T02:03:59;102665.03;;;13.54;53.95
62126;BME280;48112;53.282;6.150;2023-03-04T02:05:02;102672.09;;;13.56;53.90
62126;BME280;48112;53.282;6.150;2023-03-04T02:06:04;102674.81;;;13.56;53.41
62126;BME280;48112;53.282;6.150;2023-03-04T02:07:07;102670.47;;;13.54;53.99
62126;BME280;48112;53.282;6.150;2023-03-04T02:08:11;102670.47;;;13.54;53.67
62126;BME280;48112;53.282;6.150;2023-03-04T02:09:15;102670.47;;;13.54;53.43
62126;BME280;48112;53.282;6.150;2023-03-04T02:10:18;102666.97;;;13.54;53.66
62126;BME280;48112;53.282;6.150;2023-03-04T02:11:21;102675.91;;;13.54;53.85
62126;BME280;48112;53.282;6.150;2023-03-04T02:12:23;102666.97;;;13.54;53.93
62126;BME280;48112;53.282;6.150;2023-03-04T02:13:26;102665.03;;;13.54;53.86
62126;BME280;48112;53.282;6.150;2023-03-04T02:14:28;102667.75;;;13.54;53.57
62126;BME280;48112;53.282;6.150;2023-03-04T02:15:31;102671.59;;;13.53;53.84
62126;BME280;48112;53.282;6.150;2023-03-04T02:16:33;102658.84;;;13.54;53.89
62126;BME280;48112;53.282;6.150;2023-03-04T02:17:36;102659.63;;;13.54;53.90
62126;BME280;48112;53.282;6.150;2023-03-04T02:18:37;102658.84;;;13.54;53.40
62126;BME280;48112;53.282;6.150;2023-03-04T02:19:43;102657.22;;;13.53;54.02
62126;BME280;48112;53.282;6.150;2023-03-04T02:20:54;102655.31;;;13.53;53.60
62126;BME280;48112;53.282;6.150;2023-03-04T02:22:01;102656.91;;;13.54;53.74
62126;BME280;48112;53.282;6.150;2023-03-04T02:23:05;102655.31;;;13.53;53.84
62126;BME280;48112;53.282;6.150;2023-03-04T02:24:11;102654.50;;;13.53;53.41
62126;BME280;48112;53.282;6.150;2023-03-04T02:25:16;102650.69;;;13.54;53.86
62126;BME280;48112;53.282;6.150;2023-03-04T02:26:22;102650.97;;;13.52;53.43
62126;BME280;48112;53.282;6.150;2023-03-04T02:27:25;102649.88;;;13.53;53.42
62126;BME280;48112;53.282;6.150;2023-03-04T02:28:28;102645.56;;;13.52;53.57
62126;BME280;48112;53.282;6.150;2023-03-04T02:29:30;102646.38;;;13.53;53.42
62126;BME280;48112;53.282;6.150;2023-03-04T02:30:33;102653.69;;;13.52;53.51
62126;BME280;48112;53.282;6.150;2023-03-04T02:31:36;102644.78;;;13.52;53.61
62126;BME280;48112;53.282;6.150;2023-03-04T02:32:39;102643.97;;;13.51;53.29
62126;BME280;48112;53.282;6.150;2023-03-04T02:33:40;102645.56;;;13.52;53.44
62126;BME280;48112;53.282;6.150;2023-03-04T02:34:44;102642.84;;;13.52;53.46
62126;BME280;48112;53.282;6.150;2023-03-04T02:35:47;102639.34;;;13.52;53.32
62126;BME280;48112;53.282;6.150;2023-03-04T02:36:51;102642.06;;;13.52;53.68
62126;BME280;48112;53.282;6.150;2023-03-04T02:37:54;102636.63;;;13.52;53.43
62126;BME280;48112;53.282;6.150;2023-03-04T02:39:00;102633.91;;;13.52;53.37
62126;BME280;48112;53.282;6.150;2023-03-04T02:40:03;102639.34;;;13.52;53.56
62126;BME280;48112;53.282;6.150;2023-03-04T02:41:08;102635.81;;;13.51;53.33
62126;BME280;48112;53.282;6.150;2023-03-04T02:42:14;102643.97;;;13.51;53.77
62126;BME280;48112;53.282;6.150;2023-03-04T02:43:18;102634.69;;;13.52;53.49
62126;BME280;48112;53.282;6.150;2023-03-04T02:44:21;102642.84;;;13.52;53.41
62126;BME280;48112;53.282;6.150;2023-03-04T02:45:29;102638.53;;;13.51;53.64
62126;BME280;48112;53.282;6.150;2023-03-04T02:46:31;102641.25;;;13.51;53.52
62126;BME280;48112;53.282;6.150;2023-03-04T02:47:34;102636.63;;;13.52;53.71
62126;BME280;48112;53.282;6.150;2023-03-04T02:48:36;102633.13;;;13.51;53.30
62126;BME280;48112;53.282;6.150;2023-03-04T02:49:39;102635.03;;;13.51;53.55
62126;BME280;48112;53.282;6.150;2023-03-04T02:50:42;102633.91;;;13.52;53.35
62126;BME280;48112;53.282;6.150;2023-03-04T02:51:45;102630.41;;;13.51;53.58
62126;BME280;48112;53.282;6.150;2023-03-04T02:52:49;102633.91;;;13.52;53.60
62126;BME280;48112;53.282;6.150;2023-03-04T02:53:52;102629.28;;;13.52;54.00
62126;BME280;48112;53.282;6.150;2023-03-04T02:54:56;102630.41;;;13.51;53.30
62126;BME280;48112;53.282;6.150;2023-03-04T02:55:58;102630.41;;;13.51;53.97
62126;BME280;48112;53.282;6.150;2023-03-04T02:57:06;102630.41;;;13.51;53.85
62126;BME280;48112;53.282;6.150;2023-03-04T02:58:11;102624.97;;;13.51;53.93
62126;BME280;48112;53.282;6.150;2023-03-04T02:59:14;102620.34;;;13.52;53.87
62126;BME280;48112;53.282;6.150;2023-03-04T03:00:16;102622.25;;;13.51;53.37
62126;BME280;48112;53.282;6.150;2023-03-04T03:01:19;102628.50;;;13.52;54.03
62126;BME280;48112;53.282;6.150;2023-03-04T03:02:21;102627.69;;;13.51;53.93
62126;BME280;48112;53.282;6.150;2023-03-04T03:03:24;102626.09;;;13.50;53.94
62126;BME280;48112;53.282;6.150;2023-03-04T03:04:28;102622.25;;;13.51;53.85
62126;BME280;48112;53.282;6.150;2023-03-04T03:05:32;102624.16;;;13.51;53.92
62126;BME280;48112;53.282;6.150;2023-03-04T03:06:34;102624.97;;;13.51;53.50
62126;BME280;48112;53.282;6.150;2023-03-04T03:07:37;102627.69;;;13.51;53.95
62126;BME280;48112;53.282;6.150;2023-03-04T03:08:38;102622.25;;;13.51;53.76
62126;BME280;48112;53.282;6.150;2023-03-04T03:09:41;102620.34;;;13.52;53.34
62126;BME280;48112;53.282;6.150;2023-03-04T03:10:43;102616.84;;;13.51;53.81
62126;BME280;48112;53.282;6.150;2023-03-04T03:11:45;102615.25;;;13.50;53.91
62126;BME280;48112;53.282;6.150;2023-03-04T03:12:47;102616.03;;;13.51;53.84
62126;BME280;48112;53.282;6.150;2023-03-04T03:13:51;102609.81;;;13.50;53.34
62126;BME280;48112;53.282;6.150;2023-03-04T03:14:53;102616.03;;;13.51;53.43
62126;BME280;48112;53.282;6.150;2023-03-04T03:15:57;102610.59;;;13.51;53.74
62126;BME280;48112;53.282;6.150;2023-03-04T03:16:59;102614.13;;;13.51;53.32
62126;BME280;48112;53.282;6.150;2023-03-04T03:18:02;102611.41;;;13.51;53.96
62126;BME280;48112;53.282;6.150;2023-03-04T03:19:04;102608.69;;;13.51;53.95
62126;BME280;48112;53.282;6.150;2023-03-04T03:20:08;102603.59;;;13.50;53.78
62126;BME280;48112;53.282;6.150;2023-03-04T03:21:10;102611.41;;;13.51;53.40
62126;BME280;48112;53.282;6.150;2023-03-04T03:22:13;102607.56;;;13.52;53.92
62126;BME280;48112;53.282;6.150;2023-03-04T03:23:15;102605.16;;;13.51;53.36
62126;BME280;48112;53.282;6.150;2023-03-04T03:24:18;102608.69;;;13.51;53.85
62126;BME280;48112;53.282;6.150;2023-03-04T03:25:20;102601.69;;;13.50;53.66
62126;BME280;48112;53.282;6.150;2023-03-04T03:26:23;102600.56;;;13.51;53.93
62126;BME280;48112;53.282;6.150;2023-03-04T03:27:25;102600.56;;;13.51;53.50
62126;BME280;48112;53.282;6.150;2023-03-04T03:28:28;102589.69;;;13.51;53.74
62126;BME280;48112;53.282;6.150;2023-03-04T03:29:31;102597.03;;;13.51;53.94
62126;BME280;48112;53.282;6.150;2023-03-04T03:30:34;102594.31;;;13.51;53.76
62126;BME280;48112;53.282;6.150;2023-03-04T03:31:38;102593.53;;;13.50;53.62
62126;BME280;48112;53.282;6.150;2023-03-04T03:32:41;102592.72;;;13.50;53.51
62126;BME280;48112;53.282;6.150;2023-03-04T03:33:42;102597.03;;;13.51;53.38
62126;BME280;48112;53.282;6.150;2023-03-04T03:34:45;102590.81;;;13.50;53.89
62126;BME280;48112;53.282;6.150;2023-03-04T03:35:47;102586.50;;;13.49;53.65
62126;BME280;48112;53.282;6.150;2023-03-04T03:36:50;102591.91;;;13.49;53.90
62126;BME280;48112;53.282;6.150;2023-03-04T03:37:52;102587.31;;;13.50;53.51
62126;BME280;48112;53.282;6.150;2023-03-04T03:38:55;102588.88;;;13.51;53.90
62126;BME280;48112;53.282;6.150;2023-03-04T03:39:57;102590.81;;;13.50;53.97
62126;BME280;48112;53.282;6.150;2023-03-04T03:40:59;102581.88;;;13.50;53.48
62126;BME280;48112;53.282;6.150;2023-03-04T03:42:01;102586.50;;;13.49;53.70
62126;BME280;48112;53.282;6.150;2023-03-04T03:43:04;102584.59;;;13.50;54.06
62126;BME280;48112;53.282;6.150;2023-03-04T03:44:05;102584.59;;;13.50;53.92
62126;BME280;48112;53.282;6.150;2023-03-04T03:45:10;102585.41;;;13.50;53.87
62126;BME280;48112;53.282;6.150;2023-03-04T03:46:12;102582.19;;;13.48;53.58
62126;BME280;48112;53.282;6.150;2023-03-04T03:47:15;102581.06;;;13.49;53.67
62126;BME280;48112;53.282;6.150;2023-03-04T03:48:17;102585.72;;;13.49;53.95
62126;BME280;48112;53.282;6.150;2023-03-04T03:49:20;102591.91;;;13.49;53.66
62126;BME280;48112;53.282;6.150;2023-03-04T03:50:22;102586.50;;;13.49;54.08
62126;BME280;48112;53.282;6.150;2023-03-04T03:51:24;102586.50;;;13.49;53.98
62126;BME280;48112;53.282;6.150;2023-03-04T03:52:26;102584.91;;;13.48;53.70
62126;BME280;48112;53.282;6.150;2023-03-04T03:53:29;102586.50;;;13.49;54.08
62126;BME280;48112;53.282;6.150;2023-03-04T03:54:31;102581.06;;;13.49;53.90
62126;BME280;48112;53.282;6.150;2023-03-04T03:55:33;102591.91;;;13.49;53.48
62126;BME280;48112;53.282;6.150;2023-03-04T03:56:35;102587.31;;;13.50;53.69
62126;BME280;48112;53.282;6.150;2023-03-04T03:57:38;102579.47;;;13.48;53.65
62126;BME280;48112;53.282;6.150;2023-03-04T03:58:39;102581.38;;;13.48;53.83
62126;BME280;48112;53.282;6.150;2023-03-04T03:59:42;102581.38;;;13.48;53.75
62126;BME280;48112;53.282;6.150;2023-03-04T04:00:45;102579.47;;;13.48;54.11
62126;BME280;48112;53.282;6.150;2023-03-04T04:01:48;102586.03;;;13.47;54.10
62126;BME280;48112;53.282;6.150;2023-03-04T04:02:50;102577.91;;;13.47;53.56
62126;BME280;48112;53.282;6.150;2023-03-04T04:03:53;102583.31;;;13.47;53.96
62126;BME280;48112;53.282;6.150;2023-03-04T04:04:55;102586.81;;;13.48;53.83
62126;BME280;48112;53.282;6.150;2023-03-04T04:05:57;102580.59;;;13.47;53.72
62126;BME280;48112;53.282;6.150;2023-03-04T04:06:59;102580.59;;;13.47;53.36
62126;BME280;48112;53.282;6.150;2023-03-04T04:08:02;102583.31;;;13.47;53.98
62126;BME280;48112;53.282;6.150;2023-03-04T04:09:03;102577.91;;;13.47;53.58
62126;BME280;48112;53.282;6.150;2023-03-04T04:10:07;102584.41;;;13.46;53.46
62126;BME280;48112;53.282;6.150;2023-03-04T04:11:09;102581.69;;;13.46;53.50
62126;BME280;48112;53.282;6.150;2023-03-04T04:12:12;102587.13;;;13.46;53.41
62126;BME280;48112;53.282;6.150;2023-03-04T04:13:15;102584.41;;;13.46;53.51
62126;BME280;48112;53.282;6.150;2023-03-04T04:14:17;102584.41;;;13.46;53.87
62126;BME280;48112;53.282;6.150;2023-03-04T04:15:19;102581.69;;;13.46;53.39
62126;BME280;48112;53.282;6.150;2023-03-04T04:16:24;102580.94;;;13.46;54.01
62126;BME280;48112;53.282;6.150;2023-03-04T04:17:25;102590.97;;;13.45;53.65
62126;BME280;48112;53.282;6.150;2023-03-04T04:18:28;102579.31;;;13.45;53.90
62126;BME280;48112;53.282;6.150;2023-03-04T04:19:30;102581.69;;;13.46;53.47
62126;BME280;48112;53.282;6.150;2023-03-04T04:20:33;102571.97;;;13.45;53.84
62126;BME280;48112;53.282;6.150;2023-03-04T04:21:34;102578.22;;;13.46;53.85
62126;BME280;48112;53.282;6.150;2023-03-04T04:22:37;102575.50;;;13.46;53.73
62126;BME280;48112;53.282;6.150;2023-03-04T04:23:39;102572.78;;;13.46;53.91
62126;BME280;48112;53.282;6.150;2023-03-04T04:24:42;102570.84;;;13.46;53.46
62126;BME280;48112;53.282;6.150;2023-03-04T04:25:44;102570.06;;;13.46;54.21
62126;BME280;48112;53.282;6.150;2023-03-04T04:26:46;102570.06;;;13.46;54.01
62126;BME280;48112;53.282;6.150;2023-03-04T04:27:48;102571.97;;;13.45;53.42
62126;BME280;48112;53.282;6.150;2023-03-04T04:28:51;102569.25;;;13.45;53.99
62126;BME280;48112;53.282;6.150;2023-03-04T04:29:53;102567.69;;;13.44;53.93
62126;BME280;48112;53.282;6.150;2023-03-04T04:30:55;102563.84;;;13.45;53.48
62126;BME280;48112;53.282;6.150;2023-03-04T04:31:58;102575.50;;;13.46;53.61
62126;BME280;48112;53.282;6.150;2023-03-04T04:33:01;102562.25;;;13.44;53.38
62126;BME280;48112;53.282;6.150;2023-03-04T04:34:05;102577.41;;;13.45;54.00
62126;BME280;48112;53.282;6.150;2023-03-04T04:35:08;102574.69;;;13.45;53.80
62126;BME280;48112;53.282;6.150;2023-03-04T04:36:11;102577.41;;;13.45;53.42
62126;BME280;48112;53.282;6.150;2023-03-04T04:37:14;102573.88;;;13.45;54.04
62126;BME280;48112;53.282;6.150;2023-03-04T04:38:17;102580.13;;;13.45;54.02
62126;BME280;48112;53.282;6.150;2023-03-04T04:39:19;102573.88;;;13.45;53.51
62126;BME280;48112;53.282;6.150;2023-03-04T04:40:21;102584.72;;;13.45;53.58
62126;BME280;48112;53.282;6.150;2023-03-04T04:41:24;102583.63;;;13.46;53.40
62126;BME280;48112;53.282;6.150;2023-03-04T04:42:27;102583.97;;;13.44;53.91
62126;BME280;48112;53.282;6.150;2023-03-04T04:43:29;102576.59;;;13.45;53.46
62126;BME280;48112;53.282;6.150;2023-03-04T04:44:32;102579.31;;;13.45;53.91
62126;BME280;48112;53.282;6.150;2023-03-04T04:45:33;102574.69;;;13.45;54.12
62126;BME280;48112;53.282;6.150;2023-03-04T04:46:36;102578.53;;;13.44;53.60
62126;BME280;48112;53.282;6.150;2023-03-04T04:47:39;102580.13;;;13.45;53.58
62126;BME280;48112;53.282;6.150;2023-03-04T04:48:42;102579.31;;;13.45;53.85
62126;BME280;48112;53.282;6.150;2023-03-04T04:49:44;102582.84;;;13.45;53.52
62126;BME280;48112;53.282;6.150;2023-03-04T04:50:52;102575.81;;;13.44;53.83
62126;BME280;48112;53.282;6.150;2023-03-04T04:51:53;102576.91;;;13.43;53.83
62126;BME280;48112;53.282;6.150;2023-03-04T04:52:56;102576.91;;;13.43;54.03
62126;BME280;48112;53.282;6.150;2023-03-04T04:53:58;102567.69;;;13.44;54.08
62126;BME280;48112;53.282;6.150;2023-03-04T04:55:00;102573.09;;;13.44;54.07
62126;BME280;48112;53.282;6.150;2023-03-04T04:56:07;102568.78;;;13.43;53.87
62126;BME280;48112;53.282;6.150;2023-03-04T04:57:10;102572.28;;;13.44;53.66
62126;BME280;48112;53.282;6.150;2023-03-04T04:58:11;102560.63;;;13.43;54.24
62126;BME280;48112;53.282;6.150;2023-03-04T04:59:14;102568.78;;;13.43;53.72
62126;BME280;48112;53.282;6.150;2023-03-04T05:00:16;102561.44;;;13.44;54.24
62126;BME280;48112;53.282;6.150;2023-03-04T05:01:20;102569.59;;;13.44;53.64
62126;BME280;48112;53.282;6.150;2023-03-04T05:02:22;102570.69;;;13.43;54.28
62126;BME280;48112;53.282;6.150;2023-03-04T05:03:26;102566.06;;;13.43;54.31
62126;BME280;48112;53.282;6.150;2023-03-04T05:04:28;102563.34;;;13.43;54.10
62126;BME280;48112;53.282;6.150;2023-03-04T05:05:30;102567.97;;;13.43;53.68
62126;BME280;48112;53.282;6.150;2023-03-04T05:06:32;102560.63;;;13.43;54.14
62126;BME280;48112;53.282;6.150;2023-03-04T05:07:35;102563.34;;;13.43;53.87
62126;BME280;48112;53.282;6.150;2023-03-04T05:08:37;102564.47;;;13.42;53.84
62126;BME280;48112;53.282;6.150;2023-03-04T05:09:40;102563.66;;;13.42;54.20
62126;BME280;48112;53.282;6.150;2023-03-04T05:10:41;102563.34;;;13.43;54.18
62126;BME280;48112;53.282;6.150;2023-03-04T05:11:44;102562.53;;;13.43;54.17
62126;BME280;48112;53.282;6.150;2023-03-04T05:12:46;102570.69;;;13.43;54.34
62126;BME280;48112;53.282;6.150;2023-03-04T05:13:50;102553.63;;;13.42;53.94
62126;BME280;48112;53.282;6.150;2023-03-04T05:14:52;102564.47;;;13.42;54.27
62126;BME280;48112;53.282;6.150;2023-03-04T05:15:55;102564.47;;;13.42;54.31
62126;BME280;48112;53.282;6.150;2023-03-04T05:16:56;102554.72;;;13.41;54.12
62126;BME280;48112;53.282;6.150;2023-03-04T05:17:59;102562.53;;;13.43;54.13
62126;BME280;48112;53.282;6.150;2023-03-04T05:19:02;102567.19;;;13.42;54.41
62126;BME280;48112;53.282;6.150;2023-03-04T05:20:05;102564.47;;;13.42;54.59
62126;BME280;48112;53.282;6.150;2023-03-04T05:21:07;102565.56;;;13.41;54.09
62126;BME280;48112;53.282;6.150;2023-03-04T05:22:10;102568.28;;;13.41;54.50
62126;BME280;48112;53.282;6.150;2023-03-04T05:23:12;102567.19;;;13.42;54.20
62126;BME280;48112;53.282;6.150;2023-03-04T05:24:15;102567.19;;;13.42;54.75
62126;BME280;48112;53.282;6.150;2023-03-04T05:25:16;102561.75;;;13.42;54.68
62126;BME280;48112;53.282;6.150;2023-03-04T05:26:19;102565.25;;;13.43;54.72
62126;BME280;48112;53.282;6.150;2023-03-04T05:27:21;102563.66;;;13.42;54.52
62126;BME280;48112;53.282;6.150;2023-03-04T05:28:24;102559.06;;;13.42;54.68